Time;durP1;ratioP1;P1;durP2;ratioP2;P2;SDS_P1;SDS_P2;PMS_P1;PMS_P2;Temp;Humidity;BMP_temperature;BMP_pressure;BME280_temperature;BME280_humidity;BME280_pressure;Samples;Min_cycle;Max_cycle;Signal;HPM_P1;HPM_P2
2023/12/17 00:01:46;;;;;;;47.65;34.65;;;;;;;7.77;100.00;103603.84;5047933;28;20458;-62
2023/12/17 00:04:12;;;;;;;55.17;37.40;;;;;;;7.79;100.00;103601.41;5047906;28;20120;-63
2023/12/17 00:06:37;;;;;;;51.70;35.00;;;;;;;7.79;100.00;103594.56;5052621;28;20059;-62
2023/12/17 00:09:03;;;;;;;53.92;35.88;;;;;;;7.77;100.00;103592.63;5067499;28;20483;-62
2023/12/17 00:11:29;;;;;;;51.13;34.67;;;;;;;7.79;100.00;103591.97;5049838;28;20095;-63
2023/12/17 00:13:54;;;;;;;53.80;35.60;;;;;;;7.79;100.00;103591.97;5047988;28;20059;-62
2023/12/17 00:16:19;;;;;;;50.40;33.78;;;;;;;7.81;100.00;103586.94;5046761;28;20461;-63
2023/12/17 00:18:45;;;;;;;55.63;35.17;;;;;;;7.80;100.00;103590.31;5047939;28;20029;-62
2023/12/17 00:21:10;;;;;;;54.75;34.65;;;;;;;7.78;100.00;103590.19;5046819;28;20398;-62
2023/12/17 00:23:35;;;;;;;49.53;35.97;;;;;;;7.79;100.00;103591.06;5047187;28;20032;-62
2023/12/17 00:26:01;;;;;;;48.10;34.22;;;;;;;7.81;100.00;103581.78;5047207;28;20044;-62
2023/12/17 00:28:26;;;;;;;53.00;34.55;;;;;;;7.82;100.00;103578.44;5047383;28;20040;-63
2023/12/17 00:30:52;;;;;;;53.53;35.90;;;;;;;7.80;100.00;103567.09;5046697;28;20418;-63
2023/12/17 00:33:17;;;;;;;52.83;33.70;;;;;;;7.83;100.00;103569.00;5036144;28;20039;-63
2023/12/17 00:35:42;;;;;;;47.67;33.70;;;;;;;7.82;100.00;103568.13;5044617;28;20013;-63
2023/12/17 00:38:08;;;;;;;46.38;32.13;;;;;;;7.86;100.00;103559.84;5054648;28;20051;-62
2023/12/17 00:40:33;;;;;;;49.30;35.50;;;;;;;7.84;100.00;103563.09;5053890;28;20028;-63
2023/12/17 00:42:58;;;;;;;47.95;33.88;;;;;;;7.84;100.00;103571.75;5040852;28;20017;-63
2023/12/17 00:45:24;;;;;;;50.05;34.25;;;;;;;7.85;100.00;103559.72;5040340;28;20025;-63
2023/12/17 00:47:49;;;;;;;50.25;34.70;;;;;;;7.84;100.00;103556.25;5053341;28;20024;-63
2023/12/17 00:50:14;;;;;;;49.53;34.10;;;;;;;7.85;100.00;103560.63;5052766;28;20048;-62
2023/12/17 00:52:39;;;;;;;49.63;33.70;;;;;;;7.85;100.00;103565.81;5047554;28;20025;-63
2023/12/17 00:55:05;;;;;;;56.97;36.08;;;;;;;7.82;100.00;103565.53;5050957;28;20214;-63
2023/12/17 00:57:32;;;;;;;53.45;34.78;;;;;;;7.83;100.00;103569.91;5050701;28;20462;-62
2023/12/17 00:59:58;;;;;;;51.70;34.67;;;;;;;7.82;100.00;103560.38;5051202;28;20260;-63
2023/12/17 01:02:23;;;;;;;53.78;33.80;;;;;;;7.86;100.00;103558.97;5051815;28;20100;-63
2023/12/17 01:04:48;;;;;;;47.90;33.10;;;;;;;7.88;100.00;103554.84;5050614;28;20056;-63
2023/12/17 01:07:14;;;;;;;49.90;33.78;;;;;;;7.87;100.00;103548.78;5049727;28;20480;-62
2023/12/17 01:09:39;;;;;;;55.47;32.88;;;;;;;7.85;100.00;103547.72;5050188;28;20033;-62
2023/12/17 01:12:05;;;;;;;50.80;33.55;;;;;;;7.85;100.00;103533.91;5050631;28;20032;-62
2023/12/17 01:14:34;;;;;;;50.13;34.03;;;;;;;7.87;100.00;103542.69;5049740;28;20096;-63
2023/12/17 01:17:04;;;;;;;52.28;34.95;;;;;;;7.88;100.00;103535.06;5050564;28;20053;-62
2023/12/17 01:19:30;;;;;;;52.10;33.40;;;;;;;7.87;100.00;103528.13;5045161;28;20029;-63
2023/12/17 01:21:57;;;;;;;53.72;34.50;;;;;;;7.88;100.00;103535.06;5051241;28;20423;-62
2023/12/17 01:24:22;;;;;;;57.95;35.30;;;;;;;7.89;100.00;103529.16;5046173;28;20128;-63
2023/12/17 01:26:48;;;;;;;52.67;33.47;;;;;;;7.89;100.00;103528.25;5050640;28;20147;-63
2023/12/17 01:29:13;;;;;;;51.50;32.67;;;;;;;7.90;100.00;103549.03;5055947;28;20012;-62
2023/12/17 01:31:38;;;;;;;48.88;33.25;;;;;;;7.85;100.00;103550.31;5058052;28;20029;-62
2023/12/17 01:34:03;;;;;;;52.67;34.67;;;;;;;7.86;100.00;103559.84;5049764;28;20372;-62
2023/12/17 01:36:29;;;;;;;58.83;33.63;;;;;;;7.86;100.00;103570.19;5057581;28;20025;-63
2023/12/17 01:38:54;;;;;;;53.13;35.15;;;;;;;7.87;100.00;103558.19;5056456;28;20396;-63
2023/12/17 01:41:20;;;;;;;50.78;32.80;;;;;;;7.86;100.00;103561.56;5056097;28;20039;-62
2023/12/17 01:43:47;;;;;;;57.30;34.10;;;;;;;7.86;100.00;103556.38;5068553;28;20499;-63
2023/12/17 01:46:14;;;;;;;51.42;33.13;;;;;;;7.83;100.00;103564.75;5050028;28;20477;-62
2023/12/17 01:48:40;;;;;;;51.30;32.78;;;;;;;7.84;100.00;103566.59;5049949;28;20102;-63
2023/12/17 01:51:05;;;;;;;47.90;31.35;;;;;;;7.85;100.00;103562.31;5037152;28;20040;-63
2023/12/17 01:53:31;;;;;;;53.08;32.85;;;;;;;7.86;100.00;103567.59;5055077;28;20029;-62
2023/12/17 01:55:56;;;;;;;51.33;32.38;;;;;;;7.84;100.00;103574.34;5048634;28;20032;-62
2023/12/17 01:58:21;;;;;;;49.50;32.13;;;;;;;7.84;100.00;103579.50;5057724;28;20031;-63
2023/12/17 02:00:48;;;;;;;44.67;28.33;;;;;;;7.84;100.00;103569.16;5054939;28;20441;-63
2023/12/17 02:03:14;;;;;;;50.30;31.15;;;;;;;7.84;100.00;103574.34;5053574;28;20021;-62
2023/12/17 02:05:39;;;;;;;46.67;30.58;;;;;;;7.83;100.00;103577.66;5044738;28;20059;-62
2023/12/17 02:08:04;;;;;;;42.17;28.95;;;;;;;7.84;100.00;103573.41;5042624;28;20477;-62
2023/12/17 02:10:30;;;;;;;44.05;29.95;;;;;;;7.86;100.00;103572.75;5032546;28;20240;-62
2023/12/17 02:12:59;;;;;;;44.80;29.48;;;;;;;7.86;100.00;103577.94;5055984;28;20047;-62
2023/12/17 02:15:24;;;;;;;43.67;29.17;;;;;;;7.85;100.00;103576.13;5041808;28;20017;-62
2023/12/17 02:17:49;;;;;;;43.65;28.67;;;;;;;7.86;100.00;103572.75;5059882;28;20021;-63
2023/12/17 02:20:15;;;;;;;44.33;30.02;;;;;;;7.85;100.00;103564.88;5060101;28;20079;-63
2023/12/17 02:22:42;;;;;;;49.35;29.85;;;;;;;7.84;100.00;103558.84;5055407;28;20111;-63
2023/12/17 02:25:09;;;;;;;48.78;29.08;;;;;;;7.84;100.00;103564.00;5058993;28;20025;-63
2023/12/17 02:27:34;;;;;;;41.97;27.83;;;;;;;7.84;100.00;103552.75;5055555;28;20350;-62
2023/12/17 02:30:00;;;;;;;44.35;29.20;;;;;;;7.84;100.00;103558.84;5043118;28;20028;-62
2023/12/17 02:32:25;;;;;;;41.47;28.63;;;;;;;7.84;100.00;103557.94;5049111;28;20029;-63
2023/12/17 02:34:51;;;;;;;40.35;26.48;;;;;;;7.86;100.00;103567.59;5035527;28;20027;-63
2023/12/17 02:37:17;;;;;;;44.70;28.55;;;;;;;7.84;100.00;103568.25;5056560;28;20025;-63
2023/12/17 02:39:42;;;;;;;45.10;29.55;;;;;;;7.83;100.00;103559.59;5048892;28;20379;-63
2023/12/17 02:42:08;;;;;;;41.90;27.75;;;;;;;7.81;100.00;103558.56;5048896;28;20031;-64
2023/12/17 02:44:33;;;;;;;43.83;27.00;;;;;;;7.84;100.00;103560.50;5068593;28;20016;-63
2023/12/17 02:46:58;;;;;;;43.75;28.73;;;;;;;7.83;100.00;103556.09;5054687;28;20064;-63
2023/12/17 02:49:24;;;;;;;44.65;28.25;;;;;;;7.81;100.00;103554.31;5048094;28;20128;-63
2023/12/17 02:51:50;;;;;;;45.88;29.25;;;;;;;7.80;100.00;103557.66;5061309;28;20102;-63
2023/12/17 02:54:17;;;;;;;39.28;25.92;;;;;;;7.81;100.00;103559.47;5036185;28;20369;-62
2023/12/17 02:56:43;;;;;;;45.97;30.60;;;;;;;7.81;100.00;103567.22;5060747;28;20107;-63
2023/12/17 02:59:09;;;;;;;45.00;28.80;;;;;;;7.83;100.00;103557.00;5047936;28;20112;-62
2023/12/17 03:01:34;;;;;;;46.22;28.52;;;;;;;7.82;100.00;103544.88;5061171;28;20047;-62
2023/12/17 03:04:01;;;;;;;45.97;28.55;;;;;;;7.83;100.00;103548.34;5056347;28;20025;-62
2023/12/17 03:06:26;;;;;;;41.53;26.52;;;;;;;7.81;100.00;103543.97;5054564;28;20054;-62
2023/12/17 03:08:51;;;;;;;42.72;26.52;;;;;;;7.81;100.00;103543.06;5054397;28;20095;-62
2023/12/17 03:11:16;;;;;;;41.83;26.23;;;;;;;7.82;100.00;103544.88;5055553;28;20025;-63
2023/12/17 03:13:42;;;;;;;40.58;26.23;;;;;;;7.83;100.00;103541.53;5064874;28;20460;-62
2023/12/17 03:16:08;;;;;;;39.42;27.17;;;;;;;7.84;100.00;103542.44;5059457;28;20016;-63
2023/12/17 03:18:34;;;;;;;36.28;24.40;;;;;;;7.81;100.00;103538.81;5054930;28;20136;-63
2023/12/17 03:20:59;;;;;;;36.00;24.75;;;;;;;7.81;100.00;103543.06;5043436;28;20108;-62
2023/12/17 03:23:24;;;;;;;38.63;24.13;;;;;;;7.82;100.00;103542.31;5048831;28;20112;-63
2023/12/17 03:25:49;;;;;;;38.67;24.80;;;;;;;7.79;100.00;103535.19;5048989;28;20035;-62
2023/12/17 03:28:15;;;;;;;34.20;23.52;;;;;;;7.81;100.00;103532.72;5047918;28;20133;-62
2023/12/17 03:30:40;;;;;;;33.22;22.88;;;;;;;7.83;100.00;103531.19;5047091;28;20036;-62
2023/12/17 03:33:05;;;;;;;31.63;22.08;;;;;;;7.84;100.00;103526.94;5047955;28;20477;-63
2023/12/17 03:35:31;;;;;;;31.67;21.10;;;;;;;7.79;100.00;103519.69;5048759;28;20021;-61
2023/12/17 03:37:56;;;;;;;29.50;21.02;;;;;;;7.80;100.00;103525.78;5058664;28;20104;-63
2023/12/17 03:40:21;;;;;;;29.90;19.85;;;;;;;7.78;100.00;103524.72;5047220;28;20040;-63
2023/12/17 03:42:46;;;;;;;32.47;21.98;;;;;;;7.77;100.00;103530.69;5048310;28;20025;-63
2023/12/17 03:45:12;;;;;;;32.95;20.83;;;;;;;7.78;100.00;103532.47;5047588;28;20033;-63
2023/12/17 03:47:45;;;;;;;30.85;21.02;;;;;;;7.80;100.00;103530.94;5047806;28;20088;-62
2023/12/17 03:50:11;;;;;;;30.95;20.02;;;;;;;7.77;100.00;103528.97;5047764;28;20519;-63
2023/12/17 03:52:36;;;;;;;30.73;20.33;;;;;;;7.76;100.00;103527.19;5046343;28;20029;-62
2023/12/17 03:55:01;;;;;;;28.85;19.83;;;;;;;7.76;100.00;103518.53;5047880;28;20469;-63
2023/12/17 03:57:26;;;;;;;31.20;21.05;;;;;;;7.76;100.00;103518.53;5048321;28;20021;-63
2023/12/17 03:59:53;;;;;;;25.23;18.80;;;;;;;7.75;100.00;103514.16;5047958;28;20114;-63
2023/12/17 04:02:18;;;;;;;27.52;18.63;;;;;;;7.74;100.00;103513.22;5047429;28;20025;-62
2023/12/17 04:04:43;;;;;;;24.73;19.15;;;;;;;7.75;100.00;103507.31;5047094;28;20513;-63
2023/12/17 04:07:08;;;;;;;26.80;19.38;;;;;;;7.74;100.00;103500.31;5047850;28;20036;-63
2023/12/17 04:09:34;;;;;;;25.50;18.38;;;;;;;7.75;100.00;103493.50;5047183;28;20031;-62
2023/12/17 04:12:00;;;;;;;26.20;18.58;;;;;;;7.74;100.00;103491.66;5047797;28;20082;-63
2023/12/17 04:14:25;;;;;;;24.65;16.92;;;;;;;7.73;100.00;103492.47;5046781;28;20025;-63
2023/12/17 04:16:50;;;;;;;26.10;18.35;;;;;;;7.70;100.00;103498.25;5047629;28;20031;-62
2023/12/17 04:19:16;;;;;;;23.45;17.08;;;;;;;7.69;100.00;103499.94;5046648;28;20075;-62
2023/12/17 04:21:41;;;;;;;25.83;17.85;;;;;;;7.69;100.00;103492.19;5047803;28;20116;-62
2023/12/17 04:24:06;;;;;;;27.50;18.83;;;;;;;7.67;100.00;103493.75;5046135;28;20477;-62
2023/12/17 04:26:31;;;;;;;23.25;17.27;;;;;;;7.71;100.00;103500.06;5047235;28;20025;-62
2023/12/17 04:28:57;;;;;;;27.73;17.42;;;;;;;7.67;100.00;103491.16;5051788;28;20389;-63
2023/12/17 04:31:23;;;;;;;26.88;17.45;;;;;;;7.68;100.00;103492.94;5054949;28;20467;-62
2023/12/17 04:33:48;;;;;;;24.10;16.70;;;;;;;7.69;100.00;103491.28;5052197;28;20024;-62
2023/12/17 04:36:14;;;;;;;27.02;17.33;;;;;;;7.68;100.00;103482.63;5062330;28;20013;-62
2023/12/17 04:38:41;;;;;;;25.63;17.52;;;;;;;7.66;100.00;103481.59;5046972;28;20017;-63
2023/12/17 04:41:06;;;;;;;26.92;17.48;;;;;;;7.64;100.00;103478.00;5052199;28;20025;-62
2023/12/17 04:43:32;;;;;;;28.90;18.65;;;;;;;7.66;100.00;103491.03;5055481;28;20028;-62
2023/12/17 04:45:57;;;;;;;24.52;17.13;;;;;;;7.67;100.00;103488.56;5037818;28;20048;-62
2023/12/17 04:48:23;;;;;;;27.90;18.40;;;;;;;7.67;100.00;103491.16;5058059;28;20587;-62
2023/12/17 04:50:48;;;;;;;22.67;17.00;;;;;;;7.64;100.00;103483.16;5048610;28;20048;-62
2023/12/17 04:53:13;;;;;;;26.83;18.95;;;;;;;7.60;100.00;103491.41;5055768;28;20132;-62
2023/12/17 04:55:38;;;;;;;27.58;18.38;;;;;;;7.60;100.00;103490.47;5046253;28;20016;-63
2023/12/17 04:58:04;;;;;;;26.88;18.52;;;;;;;7.60;100.00;103491.41;5046467;28;20483;-62
2023/12/17 05:00:29;;;;;;;27.70;18.83;;;;;;;7.60;100.00;103483.66;5062845;28;20028;-63
2023/12/17 05:02:55;;;;;;;29.05;19.55;;;;;;;7.57;100.00;103485.97;5065981;28;20024;-62
2023/12/17 05:05:23;;;;;;;26.58;17.67;;;;;;;7.57;100.00;103480.81;5064901;28;20024;-62
2023/12/17 05:07:48;;;;;;;27.60;18.48;;;;;;;7.55;100.00;103482.34;5042900;28;20048;-62
2023/12/17 05:10:13;;;;;;;26.23;17.35;;;;;;;7.53;100.00;103478.72;5038049;28;20024;-62
2023/12/17 05:12:38;;;;;;;27.58;18.48;;;;;;;7.51;100.00;103476.00;5054297;28;20614;-62
2023/12/17 05:15:05;;;;;;;29.17;18.60;;;;;;;7.52;100.00;103474.34;5063581;28;20040;-62
2023/12/17 05:17:31;;;;;;;27.50;17.15;;;;;;;7.50;100.00;103475.88;5065828;28;20028;-62
2023/12/17 05:19:56;;;;;;;27.17;18.58;;;;;;;7.50;100.00;103481.94;5034990;28;20037;-63
2023/12/17 05:22:21;;;;;;;25.55;18.42;;;;;;;7.51;100.00;103480.25;5047388;28;20470;-62
2023/12/17 05:24:48;;;;;;;27.75;18.23;;;;;;;7.52;100.00;103479.50;5048065;28;20025;-62
2023/12/17 05:27:14;;;;;;;25.38;18.15;;;;;;;7.50;100.00;103475.88;5047898;28;20083;-62
2023/12/17 05:29:39;;;;;;;25.92;17.13;;;;;;;7.51;100.00;103482.84;5046448;28;20030;-62
2023/12/17 05:32:06;;;;;;;30.40;18.38;;;;;;;7.51;100.00;103481.19;5045834;28;20027;-63
2023/12/17 05:34:31;;;;;;;28.15;17.70;;;;;;;7.49;100.00;103481.81;5031390;28;20017;-62
2023/12/17 05:36:56;;;;;;;28.30;19.05;;;;;;;7.52;100.00;103487.25;5055147;28;20047;-62
2023/12/17 05:39:22;;;;;;;28.17;18.27;;;;;;;7.50;100.00;103487.09;5064107;28;20036;-62
2023/12/17 05:41:47;;;;;;;28.42;18.83;;;;;;;7.49;100.00;103486.97;5060354;28;20024;-63
2023/12/17 05:44:12;;;;;;;26.83;19.77;;;;;;;7.46;100.00;103487.63;5053364;28;20020;-62
2023/12/17 05:46:38;;;;;;;28.05;19.33;;;;;;;7.45;100.00;103478.06;5050833;28;20086;-62
2023/12/17 05:49:03;;;;;;;30.02;19.30;;;;;;;7.45;100.00;103486.69;5050489;28;20379;-63
2023/12/17 05:51:28;;;;;;;26.75;19.13;;;;;;;7.48;100.00;103480.91;5049973;28;20036;-63
2023/12/17 05:53:53;;;;;;;29.02;19.45;;;;;;;7.45;100.00;103471.22;5048884;28;20377;-62
2023/12/17 05:56:19;;;;;;;28.85;19.70;;;;;;;7.43;100.00;103466.69;5050606;28;20469;-63
2023/12/17 05:58:45;;;;;;;28.08;19.33;;;;;;;7.42;100.00;103470.06;5049215;28;20021;-62
2023/12/17 06:01:10;;;;;;;24.75;17.45;;;;;;;7.36;100.00;103465.25;5050008;28;20021;-62
2023/12/17 06:03:35;;;;;;;23.23;18.15;;;;;;;7.36;100.00;103465.25;5050363;28;20074;-63
2023/12/17 06:06:01;;;;;;;25.88;19.08;;;;;;;7.38;100.00;103474.03;5049003;28;20028;-62
2023/12/17 06:08:26;;;;;;;25.65;18.42;;;;;;;7.35;100.00;103467.69;5040115;28;20035;-62
2023/12/17 06:10:51;;;;;;;26.65;18.40;;;;;;;7.34;100.00;103471.94;5059348;28;20039;-63
2023/12/17 06:13:17;;;;;;;25.55;18.05;;;;;;;7.35;100.00;103468.63;5052688;28;20035;-62
2023/12/17 06:15:42;;;;;;;22.92;16.67;;;;;;;7.32;100.00;103468.34;5058442;28;20064;-62
2023/12/17 06:18:08;;;;;;;23.48;16.05;;;;;;;7.31;100.00;103472.59;5053293;28;20036;-62
2023/12/17 06:20:33;;;;;;;22.92;16.13;;;;;;;7.32;100.00;103466.66;5058439;28;20106;-62
2023/12/17 06:22:58;;;;;;;20.58;15.15;;;;;;;7.32;100.00;103468.34;5049041;28;20021;-62
2023/12/17 06:25:24;;;;;;;19.90;15.38;;;;;;;7.31;100.00;103466.53;5036355;28;20116;-63
2023/12/17 06:27:52;;;;;;;17.80;14.38;;;;;;;7.27;100.00;103474.75;5038774;28;20035;-62
2023/12/17 06:30:18;;;;;;;18.80;14.18;;;;;;;7.27;100.00;103462.78;5045965;28;20021;-62
2023/12/17 06:32:44;;;;;;;19.48;13.57;;;;;;;7.24;100.00;103470.25;5040135;28;20544;-63
2023/12/17 06:35:09;;;;;;;16.25;12.27;;;;;;;7.25;100.00;103474.63;5064636;28;20327;-62
2023/12/17 06:37:34;;;;;;;20.65;13.23;;;;;;;7.25;100.00;103477.22;5052740;28;20056;-62
2023/12/17 06:39:59;;;;;;;17.20;12.82;;;;;;;7.25;100.00;103481.47;5049389;28;20396;-62
2023/12/17 06:42:25;;;;;;;19.38;14.27;;;;;;;7.23;100.00;103475.28;5048642;28;20028;-62
2023/12/17 06:44:50;;;;;;;18.05;13.88;;;;;;;7.25;100.00;103477.22;5048329;28;20029;-63
2023/12/17 06:47:17;;;;;;;17.70;13.23;;;;;;;7.21;100.00;103476.03;5048704;28;20690;-62
2023/12/17 06:49:42;;;;;;;21.90;14.45;;;;;;;7.25;100.00;103476.31;5048128;28;20044;-63
2023/12/17 06:52:08;;;;;;;19.17;14.27;;;;;;;7.25;100.00;103478.91;5051438;28;20025;-62
2023/12/17 06:54:33;;;;;;;18.90;14.52;;;;;;;7.24;100.00;103474.50;5059513;28;20021;-62
2023/12/17 06:56:58;;;;;;;21.95;16.35;;;;;;;7.21;100.00;103470.88;5061492;28;20021;-63
2023/12/17 06:59:24;;;;;;;19.55;15.70;;;;;;;7.22;100.00;103461.47;5058635;28;20416;-62
2023/12/17 07:01:49;;;;;;;25.13;17.60;;;;;;;7.23;100.00;103464.97;5051900;28;20108;-63
2023/12/17 07:04:14;;;;;;;21.00;16.02;;;;;;;7.21;100.00;103464.81;5061550;28;20032;-62
2023/12/17 07:06:40;;;;;;;24.58;17.63;;;;;;;7.23;100.00;103462.38;5059888;28;20021;-62
2023/12/17 07:09:06;;;;;;;25.45;17.88;;;;;;;7.19;100.00;103461.22;5057025;28;20364;-63
2023/12/17 07:11:31;;;;;;;22.48;15.77;;;;;;;7.19;100.00;103467.28;5045687;28;20182;-63
2023/12/17 07:13:56;;;;;;;22.65;15.55;;;;;;;7.25;100.00;103466.00;5045780;28;20500;-62
2023/12/17 07:16:23;;;;;;;24.73;17.23;;;;;;;7.16;100.00;103472.16;5054270;28;20047;-63
2023/12/17 07:18:50;;;;;;;20.30;14.52;;;;;;;7.14;100.00;103468.53;5049061;28;20028;-62
2023/12/17 07:21:16;;;;;;;17.70;13.48;;;;;;;7.10;100.00;103461.31;5053930;28;20078;-62
2023/12/17 07:23:41;;;;;;;19.65;14.75;;;;;;;7.12;100.00;103464.94;5045360;28;20480;-63
2023/12/17 07:26:06;;;;;;;18.15;13.07;;;;;;;7.06;100.00;103480.75;5042601;28;20129;-63
2023/12/17 07:28:32;;;;;;;18.02;13.80;;;;;;;7.05;100.00;103475.47;5057114;28;20392;-63
2023/12/17 07:30:57;;;;;;;18.30;14.38;;;;;;;7.06;100.00;103472.09;5059871;28;20512;-62
2023/12/17 07:33:22;;;;;;;15.52;12.60;;;;;;;7.07;100.00;103481.63;5059883;28;20024;-62
2023/12/17 07:35:48;;;;;;;19.50;14.25;;;;;;;7.03;100.00;103480.50;5051025;28;20090;-62
2023/12/17 07:38:13;;;;;;;19.70;12.82;;;;;;;7.04;100.00;103487.44;5049982;28;20058;-63
2023/12/17 07:40:39;;;;;;;17.52;13.45;;;;;;;7.11;100.00;103494.03;5053189;28;20028;-63
2023/12/17 07:43:05;;;;;;;18.38;13.60;;;;;;;7.06;100.00;103485.91;5059036;28;20029;-63
2023/12/17 07:45:31;;;;;;;17.08;13.30;;;;;;;7.06;100.00;103491.06;5055360;28;20033;-63
2023/12/17 07:47:56;;;;;;;17.52;13.25;;;;;;;7.08;100.00;103498.94;5054604;28;20047;-62
2023/12/17 07:50:21;;;;;;;18.70;13.68;;;;;;;7.03;100.00;103495.97;5045375;28;20049;-62
2023/12/17 07:52:47;;;;;;;16.00;12.68;;;;;;;7.03;100.00;103495.03;5048022;28;20098;-63
2023/12/17 07:55:13;;;;;;;17.80;12.25;;;;;;;7.03;100.00;103493.38;5044775;28;20021;-62
2023/12/17 07:57:38;;;;;;;15.98;11.63;;;;;;;7.03;100.00;103497.63;5047282;28;20647;-63
2023/12/17 08:00:07;;;;;;;18.13;12.18;;;;;;;6.99;100.00;103493.88;5047265;28;20027;-62
2023/12/17 08:02:32;;;;;;;16.20;11.90;;;;;;;6.95;100.00;103503.00;5045422;28;20033;-63
2023/12/17 08:04:58;;;;;;;17.52;11.27;;;;;;;6.94;100.00;103500.28;5043342;28;20106;-62
2023/12/17 08:07:23;;;;;;;15.50;11.23;;;;;;;6.94;100.00;103505.44;5046023;28;20039;-63
2023/12/17 08:09:48;;;;;;;13.77;11.02;;;;;;;6.91;100.00;103506.06;5040109;28;20114;-62
2023/12/17 08:12:13;;;;;;;15.07;11.35;;;;;;;6.89;100.00;103497.28;5040098;28;20429;-62
2023/12/17 08:14:39;;;;;;;13.70;10.98;;;;;;;6.87;100.00;103498.84;5043894;28;20037;-63
2023/12/17 08:17:04;;;;;;;13.48;10.27;;;;;;;6.88;100.00;103500.63;5045246;28;20489;-62
2023/12/17 08:19:29;;;;;;;13.45;10.15;;;;;;;6.90;100.00;103499.09;5043831;28;20543;-62
2023/12/17 08:21:57;;;;;;;14.52;10.18;;;;;;;6.88;100.00;103500.63;5039519;28;20032;-63
2023/12/17 08:24:23;;;;;;;11.75;9.50;;;;;;;6.83;100.00;103496.75;5044384;28;20047;-63
2023/12/17 08:26:50;;;;;;;13.85;10.02;;;;;;;6.83;100.00;103501.91;5043606;28;20108;-62
2023/12/17 08:29:15;;;;;;;13.15;10.85;;;;;;;6.84;100.00;103503.69;5037338;28;20587;-62
2023/12/17 08:31:47;;;;;;;12.60;9.63;;;;;;;6.82;100.00;103512.94;5042272;28;20033;-62
2023/12/17 08:34:13;;;;;;;12.55;9.60;;;;;;;6.68;100.00;103499.75;5032852;28;20036;-63
2023/12/17 08:36:41;;;;;;;12.68;9.68;;;;;;;6.71;100.00;103501.69;5046219;28;20029;-62
2023/12/17 08:39:11;;;;;;;14.15;11.20;;;;;;;6.66;100.00;103514.16;5057274;28;20063;-62
2023/12/17 08:41:39;;;;;;;15.30;10.57;;;;;;;6.63;100.00;103506.16;5049706;28;20035;-63
2023/12/17 08:44:05;;;;;;;13.27;10.73;;;;;;;6.66;100.00;103510.66;5052948;28;20086;-63
2023/12/17 08:46:30;;;;;;;13.75;10.70;;;;;;;6.65;100.00;103514.94;5057274;28;20040;-62
2023/12/17 08:48:55;;;;;;;12.68;9.85;;;;;;;6.67;100.00;103509.91;5061038;28;20028;-62
2023/12/17 08:51:21;;;;;;;13.20;10.90;;;;;;;6.61;100.00;103505.09;5060825;28;20057;-63
2023/12/17 08:53:47;;;;;;;13.43;10.05;;;;;;;6.60;100.00;103508.44;5054120;28;20024;-63
2023/12/17 08:56:13;;;;;;;12.40;10.13;;;;;;;6.62;100.00;103501.75;5044203;28;20043;-62
2023/12/17 08:58:38;;;;;;;13.48;10.77;;;;;;;6.62;100.00;103506.00;5052999;28;20081;-63
2023/12/17 09:01:03;;;;;;;14.50;11.02;;;;;;;6.56;100.00;103511.50;5048582;28;20028;-62
2023/12/17 09:03:29;;;;;;;12.68;10.10;;;;;;;6.57;100.00;103521.03;5053459;28;20083;-63
2023/12/17 09:05:54;;;;;;;16.17;11.82;;;;;;;6.54;100.00;103518.19;5034361;28;20108;-62
2023/12/17 09:08:19;;;;;;;14.85;10.55;;;;;;;6.56;100.00;103519.22;5045295;28;20032;-62
2023/12/17 09:10:44;;;;;;;14.45;10.85;;;;;;;6.55;100.00;103512.28;5050495;28;20421;-62
2023/12/17 09:13:10;;;;;;;17.17;12.00;;;;;;;6.55;100.00;103505.44;5049071;28;20021;-62
2023/12/17 09:15:36;;;;;;;16.50;12.32;;;;;;;6.44;100.00;103509.59;5042703;28;20133;-62
2023/12/17 09:18:03;;;;;;;18.08;12.88;;;;;;;6.41;100.00;103511.91;5055496;28;20032;-62
2023/12/17 09:20:29;;;;;;;17.85;12.65;;;;;;;6.46;100.00;103510.66;5048817;28;20087;-62
2023/12/17 09:22:54;;;;;;;17.52;11.52;;;;;;;6.36;100.00;103515.72;5051697;28;20111;-63
2023/12/17 09:25:19;;;;;;;16.38;11.43;;;;;;;6.27;100.00;103513.22;5051021;28;20030;-62
2023/12/17 09:27:45;;;;;;;17.95;12.95;;;;;;;6.23;100.00;103514.59;5043914;28;20127;-62
2023/12/17 09:30:12;;;;;;;19.45;12.95;;;;;;;6.26;100.00;103510.50;5049566;28;20029;-63
2023/12/17 09:32:37;;;;;;;17.38;12.15;;;;;;;6.26;100.00;103507.91;5051274;28;20075;-62
2023/12/17 09:35:03;;;;;;;18.30;12.15;;;;;;;6.26;100.00;103513.06;5049481;28;20013;-63
2023/12/17 09:37:28;;;;;;;19.15;12.80;;;;;;;6.28;100.00;103508.97;5061010;28;20028;-62
2023/12/17 09:39:54;;;;;;;18.95;13.52;;;;;;;6.29;100.00;103510.78;5052181;28;20500;-63
2023/12/17 09:42:20;;;;;;;22.52;15.00;;;;;;;6.29;100.00;103510.78;5041223;28;20023;-62
2023/12/17 09:44:45;;;;;;;22.67;15.60;;;;;;;6.27;100.00;103515.78;5030867;28;20033;-62
2023/12/17 09:47:11;;;;;;;21.20;14.55;;;;;;;6.24;100.00;103515.50;5043436;28;20487;-62
2023/12/17 09:49:36;;;;;;;17.17;13.73;;;;;;;6.20;100.00;103506.59;5047146;28;20466;-63
2023/12/17 09:52:07;;;;;;;19.23;13.48;;;;;;;6.18;100.00;103512.34;5069286;28;20020;-62
2023/12/17 09:54:32;;;;;;;23.70;14.80;;;;;;;6.18;100.00;103515.84;5069557;28;20039;-63
2023/12/17 09:56:58;;;;;;;19.73;14.88;;;;;;;6.17;100.00;103519.16;5065482;28;20025;-62
2023/12/17 09:59:24;;;;;;;21.98;14.48;;;;;;;6.09;100.00;103512.41;5048912;28;20021;-62
2023/12/17 10:01:51;;;;;;;18.35;13.75;;;;;;;6.07;100.00;103522.56;5064653;28;20086;-62
2023/12/17 10:04:23;;;;;;;21.33;14.38;;;;;;;6.11;100.00;103514.38;5058541;28;20017;-62
2023/12/17 10:06:48;;;;;;;20.58;14.85;;;;;;;6.04;100.00;103522.25;5048803;28;20021;-63
2023/12/17 10:09:15;;;;;;;26.38;15.52;;;;;;;6.03;100.00;103522.09;5059118;28;20059;-62
2023/12/17 10:11:40;;;;;;;21.23;14.48;;;;;;;6.00;100.00;103522.72;5062675;28;20042;-63
2023/12/17 10:14:19;;;;;;;24.65;16.13;;;;;;;5.91;100.00;103519.25;5048990;28;20501;-62
2023/12/17 10:16:46;;;;;;;25.20;15.30;;;;;;;5.91;100.00;103512.47;5061008;28;20156;-62
2023/12/17 10:19:12;;;;;;;23.92;15.82;;;;;;;5.87;100.00;103520.63;5061788;28;20034;-62
2023/12/17 10:21:38;;;;;;;22.52;14.85;;;;;;;5.92;100.00;103524.56;5049949;28;20480;-61
2023/12/17 10:24:03;;;;;;;22.90;16.23;;;;;;;5.90;100.00;103526.06;5036093;28;20035;-62
2023/12/17 10:26:44;;;;;;;26.20;16.50;;;;;;;5.91;100.00;103533.06;5060450;28;20114;-62
2023/12/17 10:29:18;;;;;;;24.00;16.20;;;;;;;5.93;100.00;103526.38;5039532;28;20032;-62
2023/12/17 10:31:44;;;;;;;25.77;16.63;;;;;;;5.96;100.00;103515.44;5048397;28;20036;-62
2023/12/17 10:34:22;;;;;;;25.83;17.20;;;;;;;6.00;100.00;103507.25;5048898;28;20021;-62
2023/12/17 10:36:48;;;;;;;25.48;17.20;;;;;;;6.03;100.00;103512.69;5055014;28;20048;-62
2023/12/17 10:39:14;;;;;;;28.50;18.42;;;;;;;5.97;100.00;103507.88;5059225;28;20020;-63
2023/12/17 10:41:41;;;;;;;28.08;18.83;;;;;;;5.99;100.00;103493.47;5038995;28;20427;-63
2023/12/17 10:44:10;;;;;;;27.25;18.80;;;;;;;6.00;100.00;103502.13;5059035;28;20071;-63
2023/12/17 10:46:36;;;;;;;28.08;18.30;;;;;;;5.98;100.00;103501.06;5049158;28;20048;-62
2023/12/17 10:49:04;;;;;;;27.77;18.33;;;;;;;5.99;100.00;103493.47;5051716;28;20029;-62
2023/12/17 10:51:33;;;;;;;30.52;19.77;;;;;;;6.05;100.00;103494.81;5058214;28;20021;-62
2023/12/17 10:53:59;;;;;;;31.17;19.50;;;;;;;6.00;100.00;103496.97;5049077;28;20028;-63
2023/12/17 10:56:25;;;;;;;30.67;19.98;;;;;;;6.03;100.00;103486.06;5049271;28;20464;-62
2023/12/17 10:58:52;;;;;;;32.17;20.67;;;;;;;6.07;100.00;103483.03;5057105;28;20033;-62
2023/12/17 11:01:18;;;;;;;34.80;19.73;;;;;;;6.12;100.00;103479.22;5030095;28;20033;-62
2023/12/17 11:03:43;;;;;;;33.00;21.23;;;;;;;6.16;100.00;103477.81;5039757;28;20023;-62